createdAt,value
2019-05-13T00:02:06.194Z,6.77
2019-05-13T00:04:33.997Z,6.92
2019-05-13T00:07:00.999Z,6.92
2019-05-13T00:09:30.165Z,7.07
2019-05-13T00:11:57.251Z,6.82
2019-05-13T00:14:24.328Z,6.55
2019-05-13T00:16:53.494Z,6.35
2019-05-13T00:19:20.583Z,6.32
2019-05-13T00:21:47.637Z,6.19
2019-05-13T00:24:15.135Z,6.00
2019-05-13T00:26:44.462Z,5.81
2019-05-13T00:29:14.277Z,5.87
2019-05-13T00:31:43.915Z,5.87
2019-05-13T00:34:14.171Z,5.85
2019-05-13T00:36:40.494Z,5.75
2019-05-13T00:39:08.040Z,5.73
2019-05-13T00:41:35.247Z,5.67
2019-05-13T00:44:03.840Z,5.63
2019-05-13T00:46:34.023Z,5.62
2019-05-13T00:49:01.548Z,5.55
2019-05-13T00:51:28.603Z,5.66
2019-05-13T00:53:55.599Z,5.64
2019-05-13T00:56:23.790Z,5.54
2019-05-13T00:58:51.344Z,5.47
2019-05-13T01:01:18.706Z,5.52
2019-05-13T01:03:45.841Z,5.46
2019-05-13T01:06:13.370Z,5.53
2019-05-13T01:08:40.716Z,5.52
2019-05-13T01:11:07.744Z,5.63
2019-05-13T01:13:34.900Z,5.58
2019-05-13T01:16:03.746Z,5.62
2019-05-13T01:18:33.978Z,5.60
2019-05-13T01:21:01.606Z,5.62
2019-05-13T01:23:28.617Z,5.60
2019-05-13T01:25:57.456Z,5.57
2019-05-13T01:28:24.501Z,5.65
2019-05-13T01:30:53.800Z,5.67
2019-05-13T01:33:20.474Z,5.72
2019-05-13T01:35:47.529Z,5.60
2019-05-13T01:38:14.636Z,5.50
2019-05-13T01:40:44.250Z,5.62
2019-05-13T01:43:14.493Z,5.63
2019-05-13T01:45:41.016Z,5.70
2019-05-13T01:48:08.326Z,5.74
2019-05-13T01:50:35.546Z,5.85
2019-05-13T01:53:04.306Z,5.87
2019-05-13T01:55:33.979Z,5.96
2019-05-13T01:58:00.484Z,5.94
2019-05-13T02:00:27.535Z,5.94
2019-05-13T02:02:54.824Z,5.97
2019-05-13T02:05:24.096Z,5.92
2019-05-13T02:07:57.640Z,5.96
2019-05-13T02:10:39.557Z,5.97
2019-05-13T02:13:06.582Z,6.07
2019-05-13T02:15:33.825Z,6.06
2019-05-13T02:18:03.989Z,6.05
2019-05-13T02:20:33.404Z,6.07
2019-05-13T02:23:00.137Z,6.05
2019-05-13T02:25:27.190Z,6.06
2019-05-13T02:27:54.465Z,6.03
2019-05-13T02:30:21.510Z,6.06
2019-05-13T02:32:48.918Z,6.00
2019-05-13T02:35:15.944Z,6.03
2019-05-13T02:37:43.811Z,5.98
2019-05-13T02:40:13.604Z,5.92
2019-05-13T02:42:43.606Z,5.99
2019-05-13T02:45:12.361Z,5.98
2019-05-13T02:47:38.879Z,5.94
2019-05-13T02:50:06.445Z,5.96
2019-05-13T02:52:33.906Z,5.94
2019-05-13T02:55:04.047Z,5.89
2019-05-13T02:57:32.746Z,5.88
2019-05-13T02:59:58.858Z,5.93
2019-05-13T03:02:27.160Z,5.96
2019-05-13T03:04:54.220Z,5.98
2019-05-13T03:07:23.298Z,5.92
2019-05-13T03:09:52.705Z,5.90
2019-05-13T03:12:19.151Z,5.85
2019-05-13T03:14:48.561Z,5.81
2019-05-13T03:17:26.571Z,5.81
2019-05-13T03:19:53.648Z,5.74
2019-05-13T03:22:22.383Z,5.73
2019-05-13T03:24:52.368Z,5.71
2019-05-13T03:27:20.566Z,5.71
2019-05-13T03:29:47.501Z,5.65
2019-05-13T03:32:16.797Z,5.66
2019-05-13T03:34:45.602Z,5.66
2019-05-13T03:37:15.988Z,5.63
2019-05-13T03:39:43.997Z,5.58
2019-05-13T03:42:12.725Z,5.67
2019-05-13T03:44:42.862Z,5.62
2019-05-13T03:47:12.637Z,5.62
2019-05-13T03:49:42.545Z,5.67
2019-05-13T03:52:13.246Z,5.66
2019-05-13T03:54:39.079Z,5.65
2019-05-13T03:57:06.158Z,5.62
2019-05-13T03:59:33.734Z,5.63
2019-05-13T04:02:03.143Z,5.63
2019-05-13T04:04:32.409Z,5.55
2019-05-13T04:07:02.723Z,5.60
2019-05-13T04:09:32.506Z,5.58
2019-05-13T04:12:02.814Z,5.85
2019-05-13T04:14:28.359Z,5.85
2019-05-13T04:17:02.923Z,5.93
2019-05-13T04:19:34.294Z,5.90
2019-05-13T04:22:02.399Z,6.26
2019-05-13T04:24:33.300Z,6.20
2019-05-13T04:27:03.026Z,6.31
2019-05-13T04:29:33.005Z,6.39
2019-05-13T04:32:02.266Z,6.16
2019-05-13T04:34:33.287Z,6.24
2019-05-13T04:36:58.939Z,6.40
2019-05-13T04:39:40.110Z,6.74
2019-05-13T04:41:54.947Z,6.86
2019-05-13T04:44:24.030Z,6.83
2019-05-13T04:46:52.310Z,6.82
2019-05-13T04:49:22.980Z,6.81
2019-05-13T04:51:52.119Z,7.10
2019-05-13T04:54:22.309Z,7.11
2019-05-13T04:56:52.593Z,7.20
2019-05-13T04:59:22.443Z,7.38
2019-05-13T05:02:13.537Z,7.37
2019-05-13T05:05:03.242Z,7.67
2019-05-13T05:07:52.502Z,7.54
2019-05-13T05:11:05.526Z,7.90
2019-05-13T05:14:16.268Z,7.05
2019-05-13T05:17:22.480Z,7.82
2019-05-13T05:20:14.538Z,7.82
2019-05-13T05:23:38.994Z,8.03
2019-05-13T05:26:56.999Z,7.90
2019-05-13T05:29:35.846Z,7.66
2019-05-13T05:32:51.951Z,7.99
2019-05-13T05:36:07.541Z,7.90
2019-05-13T05:39:42.891Z,8.27
2019-05-13T05:42:32.191Z,7.73
2019-05-13T05:45:05.658Z,8.37
2019-05-13T05:47:35.242Z,8.42
2019-05-13T05:50:03.323Z,7.99
2019-05-13T05:52:34.401Z,8.31
2019-05-13T05:55:02.901Z,8.96
2019-05-13T05:57:31.399Z,8.70
2019-05-13T06:00:02.313Z,8.73
2019-05-13T06:02:32.192Z,9.10
2019-05-13T06:05:02.458Z,8.84
2019-05-13T06:07:32.329Z,8.86
2019-05-13T06:10:02.021Z,8.64
2019-05-13T06:12:31.513Z,8.88
2019-05-13T06:14:58.918Z,8.85
2019-05-13T06:17:26.019Z,9.72
2019-05-13T06:19:53.224Z,9.57
2019-05-13T06:22:21.655Z,9.97
2019-05-13T06:24:52.161Z,9.80
2019-05-13T06:27:21.306Z,9.51
2019-05-13T06:29:50.245Z,9.54
2019-05-13T06:32:23.581Z,9.69
2019-05-13T06:34:47.048Z,9.44
2019-05-13T06:37:14.089Z,9.76
2019-05-13T06:39:44.782Z,9.91
2019-05-13T06:42:11.857Z,10.42
2019-05-13T06:44:38.877Z,9.32
2019-05-13T06:47:07.049Z,8.98
2019-05-13T06:49:35.712Z,8.79
2019-05-13T06:52:02.780Z,8.96
2019-05-13T06:54:32.554Z,9.08
2019-05-13T06:57:04.290Z,9.03
2019-05-13T06:59:31.624Z,9.15
2019-05-13T07:01:59.082Z,10.00
2019-05-13T07:04:32.596Z,9.75
2019-05-13T07:07:09.879Z,9.01
2019-05-13T07:09:32.270Z,9.57
2019-05-13T07:11:59.003Z,9.75
2019-05-13T07:14:28.121Z,9.89
2019-05-13T07:16:55.161Z,10.91
2019-05-13T07:19:23.918Z,11.42
2019-05-13T07:21:53.610Z,11.37
2019-05-13T07:24:21.497Z,11.65
2019-05-13T07:26:48.844Z,11.53
2019-05-13T07:29:17.523Z,11.47
2019-05-13T07:31:45.165Z,12.36
2019-05-13T07:34:12.211Z,12.88
2019-05-13T07:36:42.165Z,13.13
2019-05-13T07:39:11.683Z,11.93
2019-05-13T07:41:39.610Z,11.21
2019-05-13T07:44:07.030Z,11.56
2019-05-13T07:46:34.113Z,11.17
2019-05-13T07:49:02.280Z,11.19
2019-05-13T07:51:31.559Z,11.32
2019-05-13T07:54:02.067Z,12.44
2019-05-13T07:56:28.730Z,13.16
2019-05-13T07:58:55.822Z,13.76
2019-05-13T08:01:22.918Z,14.45
2019-05-13T08:03:51.617Z,13.55
2019-05-13T08:06:22.180Z,13.09
2019-05-13T08:08:49.353Z,14.38
2019-05-13T08:11:16.483Z,13.41
2019-05-13T08:13:44.570Z,11.93
2019-05-13T08:16:12.364Z,13.12
2019-05-13T08:18:43.638Z,13.26
2019-05-13T08:21:08.399Z,13.28
2019-05-13T08:23:37.295Z,13.48
2019-05-13T08:26:04.343Z,12.96
2019-05-13T08:28:32.352Z,14.69
2019-05-13T08:31:02.099Z,14.28
2019-05-13T08:33:28.776Z,14.51
2019-05-13T08:35:58.670Z,15.06
2019-05-13T08:38:27.043Z,14.52
2019-05-13T08:40:55.261Z,14.25
2019-05-13T08:43:22.650Z,14.87
2019-05-13T08:45:51.687Z,14.63
2019-05-13T08:48:18.908Z,12.10
2019-05-13T08:50:46.174Z,12.80
2019-05-13T08:53:13.258Z,14.51
2019-05-13T08:55:42.590Z,13.14
2019-05-13T08:58:09.449Z,13.69
2019-05-13T09:00:47.589Z,13.34
2019-05-13T09:03:14.948Z,13.62
2019-05-13T09:05:42.127Z,14.69
2019-05-13T09:08:11.502Z,14.59
2019-05-13T09:10:41.216Z,14.50
2019-05-13T09:13:07.791Z,13.40
2019-05-13T09:15:42.081Z,14.60
2019-05-13T09:18:11.509Z,13.30
2019-05-13T09:20:38.611Z,14.36
2019-05-13T09:23:06.229Z,13.95
2019-05-13T09:25:34.409Z,15.06
2019-05-13T09:28:02.663Z,15.91
2019-05-13T09:30:31.754Z,15.70
2019-05-13T09:32:58.923Z,16.01
2019-05-13T09:35:27.688Z,16.57
2019-05-13T09:37:56.895Z,16.59
2019-05-13T09:40:24.011Z,15.80
2019-05-13T09:42:54.918Z,15.20
2019-05-13T09:45:21.549Z,15.12
2019-05-13T09:47:49.023Z,14.90
2019-05-13T09:50:28.499Z,13.96
2019-05-13T09:52:45.314Z,14.23
2019-05-13T09:55:25.506Z,15.34
2019-05-13T09:57:43.208Z,15.75
2019-05-13T10:00:12.208Z,16.67
2019-05-13T10:02:39.543Z,17.05
2019-05-13T10:05:06.863Z,17.97
2019-05-13T10:07:35.210Z,19.06
2019-05-13T10:10:04.820Z,17.25
2019-05-13T10:12:32.217Z,18.07
2019-05-13T10:15:02.068Z,17.26
2019-05-13T10:17:31.668Z,17.08
2019-05-13T10:19:58.275Z,17.45
2019-05-13T10:22:25.296Z,17.52
2019-05-13T10:24:52.567Z,17.02
2019-05-13T10:27:22.369Z,17.07
2019-05-13T10:29:51.820Z,17.22
2019-05-13T10:32:21.916Z,19.09
2019-05-13T10:34:52.020Z,18.28
2019-05-13T10:37:22.002Z,19.23
2019-05-13T10:39:51.818Z,18.33
2019-05-13T10:42:19.163Z,19.23
2019-05-13T10:44:46.337Z,19.90
2019-05-13T10:47:13.826Z,19.26
2019-05-13T10:49:42.505Z,17.83
2019-05-13T10:52:12.260Z,17.82
2019-05-13T10:54:41.098Z,18.47
2019-05-13T10:57:08.146Z,17.28
2019-05-13T10:59:35.261Z,15.53
2019-05-13T11:02:02.674Z,16.22
2019-05-13T11:04:32.009Z,16.40
2019-05-13T11:06:58.774Z,16.14
2019-05-13T11:09:26.594Z,16.03
2019-05-13T11:11:55.505Z,15.71
2019-05-13T11:14:22.629Z,16.20
2019-05-13T11:16:52.307Z,16.53
2019-05-13T11:19:19.265Z,16.53
2019-05-13T11:21:50.638Z,18.45
2019-05-13T11:24:16.370Z,18.62
2019-05-13T11:26:43.860Z,19.13
2019-05-13T11:29:12.145Z,18.79
2019-05-13T11:31:42.467Z,21.49
2019-05-13T11:34:08.588Z,22.59
2019-05-13T11:36:35.600Z,19.04
2019-05-13T11:39:05.412Z,21.70
2019-05-13T11:41:32.782Z,20.81
2019-05-13T11:44:12.954Z,20.65
2019-05-13T11:46:33.289Z,23.66
2019-05-13T11:49:02.262Z,23.42
2019-05-13T11:51:28.806Z,24.21
2019-05-13T11:53:57.196Z,20.92
2019-05-13T11:56:24.416Z,21.94
2019-05-13T11:58:53.322Z,22.71
2019-05-13T12:01:23.168Z,24.64
2019-05-13T12:03:53.172Z,25.13
2019-05-13T12:06:22.835Z,22.69
2019-05-13T12:08:52.178Z,23.43
2019-05-13T12:11:22.805Z,24.76
2019-05-13T12:13:53.311Z,25.48
2019-05-13T12:16:22.715Z,25.23
2019-05-13T12:18:52.538Z,22.12
2019-05-13T12:21:20.512Z,19.68
2019-05-13T12:23:48.726Z,22.47
2019-05-13T12:26:15.808Z,22.94
2019-05-13T12:28:42.961Z,23.26
2019-05-13T12:31:12.172Z,22.92
2019-05-13T12:33:38.939Z,26.63
2019-05-13T12:36:06.018Z,22.94
2019-05-13T12:38:33.611Z,20.26
2019-05-13T12:41:04.999Z,20.07
2019-05-13T12:43:31.991Z,20.95
2019-05-13T12:46:02.077Z,23.79
2019-05-13T12:48:27.934Z,22.02
2019-05-13T12:50:55.355Z,23.07
2019-05-13T12:53:23.601Z,21.19
2019-05-13T12:55:53.833Z,21.60
2019-05-13T12:58:23.360Z,20.95
2019-05-13T13:00:49.101Z,21.25
2019-05-13T13:03:16.129Z,20.94
2019-05-13T13:05:43.492Z,23.29
2019-05-13T13:08:20.955Z,20.01
2019-05-13T13:10:42.480Z,20.30
2019-05-13T13:13:10.212Z,22.78
2019-05-13T13:15:42.251Z,23.67
2019-05-13T13:18:07.065Z,21.69
2019-05-13T13:20:41.614Z,19.65
2019-05-13T13:23:04.658Z,19.73
2019-05-13T13:25:33.891Z,21.66
2019-05-13T13:28:10.570Z,23.74
2019-05-13T13:30:35.029Z,25.55
2019-05-13T13:33:02.071Z,21.29
2019-05-13T13:35:28.260Z,23.74
2019-05-13T13:37:55.423Z,23.72
2019-05-13T13:40:28.390Z,22.22
2019-05-13T13:42:52.883Z,20.99
2019-05-13T13:45:22.758Z,23.35
2019-05-13T13:48:02.249Z,21.30
2019-05-13T13:51:25.918Z,26.49
2019-05-13T13:53:56.409Z,21.51
2019-05-13T13:56:27.891Z,21.37
2019-05-13T13:58:55.612Z,22.70
2019-05-13T14:01:27.411Z,21.73
2019-05-13T14:03:54.103Z,25.76
2019-05-13T14:09:01.424Z,22.40
2019-05-13T14:11:28.413Z,21.31
2019-05-13T14:13:58.257Z,23.25
2019-05-13T14:20:36.772Z,23.26
2019-05-13T14:23:12.644Z,22.72
2019-05-13T14:25:44.397Z,23.46
2019-05-13T14:28:17.276Z,24.54
2019-05-13T14:33:42.632Z,23.73
2019-05-13T14:36:13.949Z,23.59
2019-05-13T14:38:44.239Z,24.58
2019-05-13T14:41:15.733Z,23.66
2019-05-13T14:43:44.377Z,25.68
2019-05-13T14:46:13.240Z,23.24
2019-05-13T14:48:43.374Z,25.82
2019-05-13T14:51:14.781Z,25.06
2019-05-13T14:53:44.224Z,25.01
2019-05-13T14:56:14.787Z,22.30
2019-05-13T14:58:45.197Z,22.93
2019-05-13T15:01:19.900Z,22.40
2019-05-13T15:03:45.784Z,21.84
2019-05-13T15:06:16.889Z,20.84
2019-05-13T15:08:45.884Z,22.35
2019-05-13T15:11:15.365Z,22.91
2019-05-13T15:13:43.980Z,22.31
2019-05-13T15:16:13.619Z,22.33
2019-05-13T15:18:43.958Z,23.30
2019-05-13T15:21:14.156Z,21.11
2019-05-13T15:23:44.186Z,20.05
2019-05-13T15:26:13.220Z,21.79
2019-05-13T15:28:43.694Z,23.95
2019-05-13T15:31:14.191Z,25.66
2019-05-13T15:33:43.795Z,24.81
2019-05-13T15:36:14.266Z,20.85
2019-05-13T15:38:45.345Z,25.70
2019-05-13T15:41:15.716Z,25.89
2019-05-13T15:43:51.858Z,23.64
2019-05-13T15:46:25.070Z,23.23
2019-05-13T15:48:57.796Z,23.62
2019-05-13T15:51:26.139Z,24.40
2019-05-13T15:53:57.156Z,23.50
2019-05-13T15:56:23.403Z,22.88
2019-05-13T15:58:52.959Z,22.99
2019-05-13T16:01:22.697Z,22.39
2019-05-13T16:03:49.167Z,22.98
2019-05-13T16:06:16.210Z,25.85
2019-05-13T16:08:45.160Z,25.28
2019-05-13T16:11:13.317Z,24.09
2019-05-13T16:13:41.701Z,22.41
2019-05-13T16:16:12.157Z,22.41
2019-05-13T16:18:38.940Z,20.71
2019-05-13T16:21:06.032Z,21.42
2019-05-13T16:23:33.270Z,21.84
2019-05-13T16:26:02.013Z,22.98
2019-05-13T16:28:29.921Z,23.19
2019-05-13T16:30:58.379Z,20.57
2019-05-13T16:33:25.414Z,21.70
2019-05-13T16:35:52.464Z,22.45
2019-05-13T16:38:21.950Z,21.54
2019-05-13T16:40:51.460Z,22.18
2019-05-13T16:43:20.923Z,22.46
2019-05-13T16:45:48.945Z,21.58
2019-05-13T16:48:16.125Z,20.48
2019-05-13T16:50:45.789Z,21.33
2019-05-13T16:53:15.046Z,19.34
2019-05-13T16:55:43.939Z,20.91
2019-05-13T16:58:12.524Z,19.87
2019-05-13T17:00:42.287Z,19.88
2019-05-13T17:03:11.328Z,20.19
2019-05-13T17:05:39.283Z,19.60
2019-05-13T17:08:06.469Z,20.17
2019-05-13T17:10:34.011Z,20.53
2019-05-13T17:13:02.958Z,19.67
2019-05-13T17:15:31.223Z,18.29
2019-05-13T17:18:09.292Z,18.41
2019-05-13T17:20:31.968Z,19.30
2019-05-13T17:22:59.021Z,18.71
2019-05-13T17:25:26.049Z,19.80
2019-05-13T17:27:53.193Z,19.84
2019-05-13T17:30:22.024Z,19.06
2019-05-13T17:32:51.592Z,19.01
2019-05-13T17:35:19.193Z,19.27
2019-05-13T17:37:47.248Z,20.22
2019-05-13T17:40:16.112Z,19.55
2019-05-13T17:47:15.616Z,18.17
2019-05-13T17:49:42.787Z,18.72
2019-05-13T17:52:11.548Z,18.30
2019-05-13T17:54:38.746Z,18.03
2019-05-13T17:57:05.925Z,18.07
2019-05-13T17:59:33.084Z,17.34
2019-05-13T18:02:02.674Z,17.28
2019-05-13T18:04:31.425Z,17.27
2019-05-13T18:07:01.602Z,17.61
2019-05-13T18:09:31.530Z,17.02
2019-05-13T18:11:58.154Z,16.73
2019-05-13T18:14:25.190Z,17.24
2019-05-13T18:16:52.301Z,16.66
2019-05-13T18:19:19.392Z,16.87
2019-05-13T18:21:47.570Z,16.96
2019-05-13T18:24:15.892Z,16.73
2019-05-13T18:26:44.185Z,16.99
2019-05-13T18:29:12.347Z,17.04
2019-05-13T18:31:42.073Z,16.76
2019-05-13T18:34:12.039Z,16.24
2019-05-13T18:36:38.917Z,15.98
2019-05-13T18:39:12.116Z,16.04
2019-05-13T18:41:41.255Z,15.85
2019-05-13T18:44:08.408Z,15.72
2019-05-13T18:46:35.698Z,15.40
2019-05-13T18:49:02.933Z,14.98
2019-05-13T18:51:31.590Z,14.82
2019-05-13T18:54:01.149Z,14.64
2019-05-13T18:56:28.226Z,14.33
2019-05-13T18:58:57.196Z,14.10
2019-05-13T19:01:24.476Z,13.80
2019-05-13T19:03:51.649Z,13.63
2019-05-13T19:06:22.378Z,13.39
2019-05-13T19:08:49.621Z,13.38
2019-05-13T19:11:16.673Z,13.21
2019-05-13T19:13:43.958Z,13.08
2019-05-13T19:16:11.976Z,13.09
2019-05-13T19:18:39.270Z,12.98
2019-05-13T19:21:06.373Z,12.85
2019-05-13T19:23:33.699Z,12.82
2019-05-13T19:26:02.421Z,12.79
2019-05-13T19:28:31.740Z,12.67
2019-05-13T19:30:59.077Z,12.58
2019-05-13T19:33:26.298Z,12.51
2019-05-13T19:35:53.523Z,12.50
2019-05-13T19:38:21.188Z,12.28
2019-05-13T19:40:48.558Z,12.27
2019-05-13T19:43:15.842Z,12.27
2019-05-13T19:45:43.214Z,12.18
2019-05-13T19:48:12.153Z,12.02
2019-05-13T19:50:41.596Z,12.09
2019-05-13T19:53:08.722Z,11.89
2019-05-13T19:55:35.822Z,11.92
2019-05-13T19:58:03.097Z,11.77
2019-05-13T20:00:31.621Z,11.86
2019-05-13T20:02:58.995Z,11.87
2019-05-13T20:05:26.066Z,11.79
2019-05-13T20:07:54.719Z,11.73
2019-05-13T20:10:23.384Z,11.62
2019-05-13T20:12:51.294Z,11.60
2019-05-13T20:15:18.942Z,11.65
2019-05-13T20:17:47.887Z,11.55
2019-05-13T20:20:16.185Z,11.62
2019-05-13T20:22:43.556Z,11.63
2019-05-13T20:25:13.009Z,11.51
2019-05-13T20:27:42.005Z,11.49
2019-05-13T20:30:11.430Z,11.52
2019-05-13T20:32:42.135Z,11.51
2019-05-13T20:35:11.303Z,11.41
2019-05-13T20:37:38.713Z,11.38
2019-05-13T20:40:07.553Z,11.42
2019-05-13T20:42:35.757Z,11.24
2019-05-13T20:45:03.426Z,11.15
2019-05-13T20:47:30.734Z,11.19
2019-05-13T20:50:01.809Z,11.14
2019-05-13T20:52:31.264Z,11.06
2019-05-13T20:54:58.061Z,11.10
2019-05-13T20:57:26.048Z,10.97
2019-05-13T20:59:55.342Z,10.97
2019-05-13T21:02:22.484Z,10.95
2019-05-13T21:04:51.437Z,11.01
2019-05-13T21:07:18.829Z,10.97
2019-05-13T21:09:52.049Z,10.98
2019-05-13T21:12:22.046Z,10.87
2019-05-13T21:14:53.800Z,10.86
2019-05-13T21:17:21.415Z,10.76
2019-05-13T21:19:48.644Z,10.73
2019-05-13T21:22:15.679Z,10.60
2019-05-13T21:24:42.808Z,10.46
2019-05-13T21:27:11.912Z,10.44
2019-05-13T21:29:41.323Z,10.35
2019-05-13T21:32:08.334Z,10.25
2019-05-13T21:34:35.506Z,10.25
2019-05-13T21:37:02.589Z,10.18
2019-05-13T21:39:31.828Z,10.17
2019-05-13T21:41:58.688Z,10.10
2019-05-13T21:44:25.726Z,9.93
2019-05-13T21:46:53.019Z,9.85
2019-05-13T21:49:21.375Z,9.84
2019-05-13T21:51:48.635Z,9.75
2019-05-13T21:54:17.500Z,9.68
2019-05-13T21:56:44.565Z,9.63
2019-05-13T21:59:16.759Z,9.52
2019-05-13T22:01:43.906Z,9.50
2019-05-13T22:04:12.339Z,9.47
2019-05-13T22:06:39.971Z,9.39
2019-05-13T22:09:11.493Z,9.32
2019-05-13T22:11:38.588Z,9.20
2019-05-13T22:14:05.787Z,9.16
2019-05-13T22:16:35.358Z,9.15
2019-05-13T22:19:02.690Z,9.07
2019-05-13T22:21:31.608Z,9.01
2019-05-13T22:23:58.728Z,8.95
2019-05-13T22:26:25.798Z,8.96
2019-05-13T22:28:52.882Z,8.91
2019-05-13T22:31:22.213Z,8.85
2019-05-13T22:33:52.931Z,8.91
2019-05-13T22:36:21.287Z,8.86
2019-05-13T22:38:48.740Z,8.81
2019-05-13T22:41:16.875Z,8.69
2019-05-13T22:43:54.612Z,8.57
2019-05-13T22:46:14.215Z,8.50
2019-05-13T22:48:41.970Z,8.32
2019-05-13T22:51:13.620Z,8.36
2019-05-13T22:53:42.259Z,8.44
2019-05-13T22:56:09.810Z,8.32
2019-05-13T22:58:36.864Z,8.25
2019-05-13T23:01:04.046Z,8.23
2019-05-13T23:03:32.381Z,8.12
2019-05-13T23:06:01.551Z,7.99
2019-05-13T23:08:28.593Z,7.89
2019-05-13T23:10:55.865Z,7.97
2019-05-13T23:13:22.932Z,7.86
2019-05-13T23:15:51.603Z,7.81
2019-05-13T23:18:22.196Z,7.87
2019-05-13T23:20:51.475Z,7.86
2019-05-13T23:23:18.406Z,7.76
2019-05-13T23:25:45.621Z,7.82
2019-05-13T23:28:12.706Z,7.67
2019-05-13T23:30:41.765Z,7.60
2019-05-13T23:33:11.416Z,7.72
2019-05-13T23:35:37.932Z,7.60
2019-05-13T23:38:07.453Z,7.60
2019-05-13T23:40:34.651Z,7.51
2019-05-13T23:43:02.195Z,7.37
2019-05-13T23:45:31.169Z,7.26
2019-05-13T23:47:58.319Z,7.24
2019-05-13T23:50:25.403Z,7.24
2019-05-13T23:52:52.490Z,7.18
2019-05-13T23:55:19.638Z,7.19
2019-05-13T23:57:46.788Z,7.23
